This is the latest recevied weather packets stored in our database for station/object AG1T-20. If no packets are shown the sender has not sent any weather packets the latest 10 day(s).
| Time | Temp. | Humidity | Pressure | Rain* | Wind** | Luminosity | Snow |
|---|---|---|---|---|---|---|---|
| 1787643005 | 20° C | 53% | 1025.1 hPa | 0 mm | - | 0 W/m² | - |
| 1787642405 | 20° C | 54% | 1025.1 hPa | 0 mm | - | 0 W/m² | - |
| 1787641805 | 20.56° C | 49% | 1025.1 hPa | 0 mm | - | 0 W/m² | - |
| 1787641205 | 20° C | 53% | 1025.1 hPa | 0 mm | - | 0 W/m² | - |
| 1787640605 | 20.56° C | 52% | 1024.3 hPa | 0 mm | - | 0 W/m² | - |
| 1787640005 | 20.56° C | 51% | 1024.3 hPa | 0 mm | - | 0 W/m² | - |
| 1787639405 | 22.22° C | 44% | 1024.3 hPa | 0 mm | - | 0 W/m² | - |
| 1787638805 | 22.22° C | 43% | 1024.3 hPa | 0 mm | - | 0 W/m² | - |
| 1787638205 | 21.67° C | 45% | 1024.3 hPa | 0 mm | - | 0 W/m² | - |
| 1787637604 | 21.67° C | 46% | 1024.3 hPa | 0 mm | - | 0 W/m² | - |
| 1787637005 | 22.22° C | 44% | 1023.8 hPa | 0 mm | - | 0 W/m² | - |
| 1787636405 | 22.22° C | 45% | 1023.8 hPa | 0 mm | - | 0 W/m² | - |
| 1787635805 | 22.22° C | 44% | 1023.8 hPa | 0 mm | - | 0 W/m² | - |
| 1787635205 | 23.33° C | 40% | 1023.8 hPa | 0 mm | - | 0 W/m² | - |
| 1787634604 | 22.22° C | 47% | 1023.8 hPa | 0 mm | - | 0 W/m² | - |
| 1787634004 | 23.33° C | 39% | 1023.8 hPa | 0 mm | - | 0 W/m² | - |
| 1787633405 | 22.22° C | 48% | 1025 hPa | 0 mm | - | 0 W/m² | - |
| 1787632804 | 22.22° C | 48% | 1025 hPa | 0 mm | - | 0 W/m² | - |
| 1787632205 | 22.78° C | 45% | 1025 hPa | 0 mm | - | 0 W/m² | - |
| 1787631604 | 22.78° C | 44% | 1025 hPa | 0 mm | - | 0 W/m² | - |
| 1787631005 | 21.11° C | 53% | 1025 hPa | 0 mm | - | 0 W/m² | - |
| 1787630405 | 21.67° C | 51% | 1025 hPa | 0 mm | - | 0 W/m² | - |
| 1787629804 | 21.67° C | 49% | 1023 hPa | 0 mm | - | 0 W/m² | - |
| 1787629204 | 21.67° C | 50% | 1023 hPa | 0 mm | - | 0 W/m² | - |
| 1787628604 | 21.67° C | 50% | 1023 hPa | 0 mm | - | 0 W/m² | - |
* Rain latest hour (hover to see other rain measurements)
** Current wind speed in m/s (hover to see current wind gust speed)